Time;durP1;ratioP1;P1;durP2;ratioP2;P2;SDS_P1;SDS_P2;PMS_P1;PMS_P2;Temp;Humidity;BMP_temperature;BMP_pressure;BME280_temperature;BME280_humidity;BME280_pressure;Samples;Min_cycle;Max_cycle;Signal;HPM_P1;HPM_P2
2022/04/13 00:03:41;;;;;;;61.53;28.25;;;;;;;1.47;60.51;99558.97;4175254;84;21619;-86
2022/04/13 00:09:42;;;;;;;56.30;27.05;;;;;;;1.33;60.69;99561.66;4175428;84;21057;-86
2022/04/13 00:15:44;;;;;;;59.77;26.45;;;;;;;1.12;60.87;99552.92;4175124;84;21059;-85
2022/04/13 00:21:46;;;;;;;43.63;22.10;;;;;;;1.07;61.27;99567.31;4171479;84;21506;-85
2022/04/13 00:27:47;;;;;;;40.58;21.85;;;;;;;0.79;62.10;99537.92;4173755;84;21083;-85
2022/04/13 00:33:48;;;;;;;41.45;22.00;;;;;;;0.81;61.98;99566.73;4176602;84;21072;-85
2022/04/13 00:39:49;;;;;;;43.17;22.95;;;;;;;0.61;61.38;99574.61;4170745;84;21566;-85
2022/04/13 00:45:51;;;;;;;38.10;22.05;;;;;;;0.43;62.70;99570.62;4174448;84;21079;-85
2022/04/13 00:51:55;;;;;;;43.20;23.52;;;;;;;0.37;63.23;99574.49;4173153;84;21083;-85
2022/04/13 00:57:59;;;;;;;44.10;22.48;;;;;;;0.27;63.12;99574.11;4174280;84;21085;-86
2022/04/13 01:04:02;;;;;;;52.03;24.47;;;;;;;0.14;63.44;99576.75;4172400;84;21478;-86
2022/04/13 01:10:06;;;;;;;55.45;25.85;;;;;;;-0.05;64.17;99572.16;4173443;84;21020;-85
2022/04/13 01:16:08;;;;;;;50.35;28.98;;;;;;;-0.05;64.17;99572.16;4175677;84;20987;-86
2022/04/13 01:22:21;;;;;;;66.13;33.73;;;;;;;-0.02;64.87;99568.11;4173421;84;21990;-86
2022/04/13 01:28:23;;;;;;;67.40;32.98;;;;;;;0.03;64.99;99565.88;4174686;84;21540;-86
2022/04/13 01:34:24;;;;;;;69.13;33.07;;;;;;;0.05;65.62;99559.67;4169867;84;21069;-85
2022/04/13 01:40:26;;;;;;;64.20;34.05;;;;;;;0.03;65.44;99552.42;4174274;84;21100;-86
2022/04/13 01:46:29;;;;;;;63.57;32.37;;;;;;;0.02;65.75;99553.53;4174713;84;21164;-86
2022/04/13 01:52:30;;;;;;;55.10;28.25;;;;;;;0.12;67.17;99551.47;4179590;84;21064;-86
2022/04/13 01:58:31;;;;;;;73.73;35.30;;;;;;;0.12;67.17;99551.47;4179749;84;21028;-86
2022/04/13 02:04:34;;;;;;;64.43;35.23;;;;;;;0.11;66.63;99559.84;4184207;84;21061;-87
2022/04/13 02:10:35;;;;;;;62.83;34.20;;;;;;;0.06;66.16;99549.14;4198765;84;20986;-87
2022/04/13 02:16:37;;;;;;;66.37;34.83;;;;;;;0.09;66.79;99545.33;4183337;84;21014;-86
2022/04/13 02:22:39;;;;;;;58.13;33.28;;;;;;;0.10;67.02;99541.53;4176838;84;21351;-87
2022/04/13 02:28:42;;;;;;;58.38;31.48;;;;;;;0.08;66.83;99551.01;4062137;87;22212;-86
2022/04/13 02:34:44;;;;;;;62.10;33.35;;;;;;;0.10;66.43;99548.80;4072216;85;21062;-86
2022/04/13 02:40:46;;;;;;;52.33;31.43;;;;;;;0.08;66.95;99553.13;4057784;85;20991;-86
2022/04/13 02:46:47;;;;;;;50.03;27.85;;;;;;;0.05;68.10;99561.02;4037834;85;21649;-87
2022/04/13 02:52:48;;;;;;;57.57;33.10;;;;;;;0.07;68.29;99568.23;4075780;85;21142;-85
2022/04/13 02:58:50;;;;;;;62.60;35.80;;;;;;;-0.05;67.31;99570.04;4076647;85;21492;-87
2022/04/13 03:04:52;;;;;;;62.63;34.70;;;;;;;-0.17;68.00;99563.73;4082857;85;21077;-85
2022/04/13 03:10:53;;;;;;;64.13;35.40;;;;;;;-0.33;67.77;99572.33;4087766;85;21981;-87
2022/04/13 03:16:54;;;;;;;72.23;36.70;;;;;;;-0.51;68.26;99569.86;4085939;86;21034;-87
2022/04/13 03:22:57;;;;;;;63.83;34.27;;;;;;;-0.53;68.48;99566.66;4086388;86;21070;-87
2022/04/13 03:28:58;;;;;;;63.00;33.40;;;;;;;-0.55;68.91;99565.35;4085176;85;21414;-87
2022/04/13 03:35:00;;;;;;;65.30;34.47;;;;;;;-0.53;69.25;99569.34;4082900;85;21038;-88
2022/04/13 03:41:04;;;;;;;68.57;35.50;;;;;;;-0.52;69.10;99575.53;4086891;86;21031;-87
2022/04/13 03:47:06;;;;;;;62.27;34.07;;;;;;;-0.48;69.01;99576.01;4084454;85;21970;-88
2022/04/13 03:53:07;;;;;;;56.90;31.73;;;;;;;-0.47;68.36;99585.66;4096460;85;21023;-86
2022/04/13 03:59:08;;;;;;;50.43;26.63;;;;;;;-0.47;69.32;99588.35;4092140;85;21130;-86
2022/04/13 04:05:11;;;;;;;44.50;27.50;;;;;;;-0.42;71.17;99595.02;4061755;86;35801;-86
2022/04/13 04:11:13;;;;;;;50.30;30.00;;;;;;;-0.43;70.64;99600.16;3968060;88;21091;-84
2022/04/13 04:17:14;;;;;;;64.70;33.97;;;;;;;-0.33;70.92;99596.53;3974692;87;21114;-86
2022/04/13 04:23:15;;;;;;;58.53;33.07;;;;;;;-0.40;70.21;99596.89;3965700;87;21112;-85
2022/04/13 04:29:16;;;;;;;53.90;30.90;;;;;;;-0.45;70.14;99594.25;3965232;87;21096;-86
2022/04/13 04:35:18;;;;;;;58.30;34.35;;;;;;;-0.36;70.23;99600.59;3986517;87;21099;-86
2022/04/13 04:41:19;;;;;;;53.73;32.57;;;;;;;-0.20;71.44;99598.49;3978038;87;21100;-85
2022/04/13 04:47:20;;;;;;;57.50;31.60;;;;;;;-0.12;71.19;99602.69;3993457;88;21117;-86
2022/04/13 04:53:22;;;;;;;60.15;32.00;;;;;;;0.04;71.24;99605.97;3996465;87;21108;-86
2022/04/13 04:59:23;;;;;;;59.88;31.12;;;;;;;0.20;71.38;99620.00;3993398;87;21136;-84
2022/04/13 05:05:24;;;;;;;52.48;29.12;;;;;;;0.41;71.01;99626.70;4007604;87;21806;-86
2022/04/13 05:11:25;;;;;;;58.58;30.90;;;;;;;0.99;70.87;99627.30;3986606;87;21504;-86
2022/04/13 05:17:27;;;;;;;57.13;29.82;;;;;;;0.99;70.87;99627.30;4002548;87;21646;-86
2022/04/13 05:23:28;;;;;;;49.65;29.02;;;;;;;1.21;70.85;99631.48;3992334;87;21087;-85
2022/04/13 05:29:29;;;;;;;59.38;31.02;;;;;;;1.42;70.88;99635.41;4002914;87;21072;-87
2022/04/13 05:35:31;;;;;;;50.00;27.13;;;;;;;1.73;71.32;99640.98;3995985;87;21089;-86
2022/04/13 05:41:32;;;;;;;64.47;29.72;;;;;;;2.02;71.16;99645.48;3984314;87;21645;-86
2022/04/13 05:47:34;;;;;;;54.13;28.67;;;;;;;2.32;70.82;99646.73;3985715;87;22127;-88
2022/04/13 05:53:36;;;;;;;53.83;26.57;;;;;;;2.69;70.94;99645.03;3963595;87;21617;-87
2022/04/13 05:59:38;;;;;;;50.03;26.35;;;;;;;3.14;70.84;99647.39;3956649;88;21039;-87
2022/04/13 06:05:40;;;;;;;46.75;25.12;;;;;;;3.65;70.51;99637.33;3959273;88;21075;-88
2022/04/13 06:11:41;;;;;;;40.08;24.05;;;;;;;4.15;70.20;99649.97;3963245;88;21040;-87
2022/04/13 06:17:42;;;;;;;33.63;20.00;;;;;;;4.76;70.19;99649.09;3960898;88;21137;-87
2022/04/13 06:23:43;;;;;;;38.08;20.17;;;;;;;5.35;69.61;99646.02;3958674;88;21075;-87
2022/04/13 06:29:46;;;;;;;31.73;19.32;;;;;;;5.94;69.21;99655.84;3958153;88;21090;-87
2022/04/13 06:35:47;;;;;;;37.42;19.60;;;;;;;6.59;68.79;99653.08;3958745;88;21092;-88
2022/04/13 06:41:49;;;;;;;30.40;17.73;;;;;;;7.19;68.61;99662.27;3958772;88;21114;-88
2022/04/13 06:47:50;;;;;;;33.02;16.97;;;;;;;7.52;68.14;99652.69;3961991;88;21031;-88
2022/04/13 06:53:52;;;;;;;29.77;17.42;;;;;;;7.81;67.63;99656.59;3946139;88;21764;-86
2022/04/13 06:59:54;;;;;;;37.35;16.73;;;;;;;8.06;67.08;99647.83;3957463;88;21066;-86
2022/04/13 07:05:56;;;;;;;29.15;17.65;;;;;;;8.35;66.41;99667.48;4081131;85;21019;-87
2022/04/13 07:11:58;;;;;;;30.02;17.27;;;;;;;8.66;65.77;99667.63;4077028;86;21078;-86
2022/04/13 07:18:00;;;;;;;29.27;16.85;;;;;;;8.98;65.16;99669.91;4089110;86;21022;-87
2022/04/13 07:24:01;;;;;;;30.92;16.32;;;;;;;9.29;64.02;99661.78;4081294;85;21151;-86
2022/04/13 07:30:04;;;;;;;24.87;13.58;;;;;;;9.54;63.26;99661.30;4081898;86;21092;-87
2022/04/13 07:36:06;;;;;;;23.95;13.93;;;;;;;9.93;62.98;99663.61;4070462;85;21262;-87
2022/04/13 07:42:09;;;;;;;21.55;13.38;;;;;;;10.38;62.29;99666.66;4082632;86;21509;-88
2022/04/13 07:48:12;;;;;;;23.40;11.55;;;;;;;10.86;61.31;99662.61;4091671;85;21054;-87
2022/04/13 07:54:13;;;;;;;19.80;12.13;;;;;;;11.36;60.40;99655.56;4076520;85;21909;-87
2022/04/13 08:00:16;;;;;;;16.90;10.25;;;;;;;11.95;60.15;99646.83;4088608;85;21590;-86
2022/04/13 08:06:17;;;;;;;14.85;8.30;;;;;;;12.50;57.58;99648.80;4092892;85;21084;-85
2022/04/13 08:12:19;;;;;;;20.17;11.43;;;;;;;13.10;58.37;99653.70;4095317;85;21120;-87
2022/04/13 08:18:21;;;;;;;16.45;9.48;;;;;;;13.53;56.74;99645.52;4095037;85;21013;-86
2022/04/13 08:24:23;;;;;;;21.55;9.03;;;;;;;13.95;56.21;99644.52;4083396;85;21765;-87
2022/04/13 08:30:26;;;;;;;16.35;10.63;;;;;;;14.27;53.75;99644.78;4089852;85;21104;-86
2022/04/13 08:36:28;;;;;;;22.77;13.35;;;;;;;14.40;51.27;99642.50;4094007;85;21070;-87
2022/04/13 08:43:05;;;;;;;21.97;11.45;;;;;;;14.51;50.08;99641.39;4089116;85;21078;-86
2022/04/13 08:49:09;;;;;;;19.98;11.75;;;;;;;14.41;48.98;99639.36;4081768;85;21434;-86
2022/04/13 08:55:16;;;;;;;19.92;10.93;;;;;;;14.45;48.88;99640.19;4081041;85;21182;-86
2022/04/13 09:01:22;;;;;;;19.90;9.78;;;;;;;14.41;48.07;99635.22;4071298;84;21062;-86
2022/04/13 09:07:29;;;;;;;15.38;8.78;;;;;;;14.42;48.21;99633.27;4095582;84;21593;-85
2022/04/13 09:13:32;;;;;;;15.68;8.18;;;;;;;14.86;47.53;99638.80;4114887;84;21038;-86
2022/04/13 09:19:34;;;;;;;13.85;7.45;;;;;;;15.13;47.17;99638.70;4109601;84;21085;-87
2022/04/13 09:25:39;;;;;;;13.90;6.83;;;;;;;15.78;45.32;99639.84;4119423;84;21075;-86
2022/04/13 09:31:41;;;;;;;9.43;6.05;;;;;;;16.37;43.87;99635.44;4100768;84;21110;-87
2022/04/13 09:37:45;;;;;;;8.83;5.80;;;;;;;17.18;42.24;99638.72;4119214;84;21121;-88
2022/04/13 09:43:56;;;;;;;9.05;5.37;;;;;;;18.04;43.97;99627.45;4100774;84;21044;-86
2022/04/13 09:49:58;;;;;;;8.95;5.97;;;;;;;18.55;41.09;99621.85;4095990;85;21118;-87
2022/04/13 09:55:59;;;;;;;9.70;5.05;;;;;;;19.17;42.58;99613.76;4083818;85;22195;-86
2022/04/13 10:02:01;;;;;;;8.88;5.00;;;;;;;19.48;41.66;99612.55;4074090;85;21622;-86
2022/04/13 10:08:06;;;;;;;9.58;4.67;;;;;;;20.23;39.66;99618.64;4075537;85;21046;-85
2022/04/13 10:14:09;;;;;;;6.85;4.58;;;;;;;20.67;37.39;99599.33;4077513;85;21145;-86
2022/04/13 10:20:43;;;;;;;7.95;4.70;;;;;;;21.13;38.07;99601.18;4083043;85;21081;-87
2022/04/13 10:27:07;;;;;;;6.70;4.90;;;;;;;21.64;37.14;99601.18;4081225;86;21023;-87
2022/04/13 10:33:12;;;;;;;7.72;5.35;;;;;;;21.73;32.82;99600.59;4085875;85;20992;-86
2022/04/13 10:39:15;;;;;;;7.08;4.53;;;;;;;21.81;35.21;99604.80;4039608;86;21082;-85
2022/04/13 10:45:17;;;;;;;7.87;5.10;;;;;;;21.30;32.88;99587.47;4073712;85;21107;-86
2022/04/13 10:51:23;;;;;;;5.85;4.15;;;;;;;21.92;30.61;99582.23;4085557;85;21078;-86
2022/04/13 10:57:29;;;;;;;7.33;4.78;;;;;;;22.39;30.69;99575.80;4100524;87;21043;-86
2022/04/13 11:03:38;;;;;;;7.40;4.60;;;;;;;22.10;30.46;99570.80;4078696;85;21023;-86
2022/04/13 11:09:42;;;;;;;8.20;3.77;;;;;;;21.94;28.79;99571.44;4091253;85;20988;-85
2022/04/13 11:15:46;;;;;;;6.92;3.80;;;;;;;22.72;28.56;99568.13;4092605;85;21657;-87
2022/04/13 11:22:02;;;;;;;6.50;4.25;;;;;;;23.05;27.72;99565.34;4097211;85;21094;-87
2022/04/13 11:28:05;;;;;;;5.75;3.87;;;;;;;23.13;29.10;99563.27;4088769;85;21436;-86
2022/04/13 11:34:30;;;;;;;6.33;3.45;;;;;;;23.06;26.70;99562.71;4087190;85;21130;-86
2022/04/13 11:40:32;;;;;;;6.78;3.20;;;;;;;22.93;28.20;99571.67;4009280;85;21042;-86
2022/04/13 11:46:39;;;;;;;7.90;3.98;;;;;;;22.98;25.80;99571.92;4081838;85;21038;-86
2022/04/13 11:52:54;;;;;;;6.92;4.00;;;;;;;22.76;27.34;99571.58;4086730;84;21090;-86
2022/04/13 11:58:56;;;;;;;11.68;5.55;;;;;;;22.57;26.22;99571.12;4081938;85;21086;-86
2022/04/13 12:04:59;;;;;;;5.20;3.80;;;;;;;22.22;25.57;99567.31;4075485;85;21098;-86
2022/04/13 12:11:14;;;;;;;9.33;4.65;;;;;;;21.64;25.65;99564.96;4076783;85;21170;-86
2022/04/13 12:17:15;;;;;;;6.92;4.20;;;;;;;21.02;25.84;99563.05;4083564;85;21129;-86
2022/04/13 12:23:25;;;;;;;8.55;4.60;;;;;;;20.68;25.83;99546.67;4078871;85;21050;-85
2022/04/13 12:29:29;;;;;;;7.47;3.85;;;;;;;20.16;25.89;99544.33;4078214;86;21591;-85
2022/04/13 12:35:32;;;;;;;8.08;3.50;;;;;;;19.74;26.29;99513.13;4090007;86;21060;-86
2022/04/13 12:41:33;;;;;;;8.55;3.80;;;;;;;20.23;26.17;99507.44;4081363;85;21105;-87
2022/04/13 12:47:45;;;;;;;8.58;4.15;;;;;;;20.54;26.38;99501.08;4081755;85;21050;-85
2022/04/13 12:54:01;;;;;;;7.78;3.55;;;;;;;20.56;26.26;99502.03;4082651;85;21126;-87
2022/04/13 13:00:05;;;;;;;6.33;3.77;;;;;;;20.26;25.93;99496.09;4077848;86;21073;-86
2022/04/13 13:06:09;;;;;;;5.60;3.10;;;;;;;20.06;26.43;99489.09;4060829;86;21003;-85
2022/04/13 13:12:17;;;;;;;7.97;3.62;;;;;;;20.06;26.26;99482.14;4086512;86;21103;-86
2022/04/13 13:18:19;;;;;;;6.53;3.45;;;;;;;20.39;26.48;99483.09;4086591;85;21001;-85
2022/04/13 13:24:27;;;;;;;8.13;4.00;;;;;;;20.23;26.30;99483.05;4090867;86;21006;-86
2022/04/13 13:30:29;;;;;;;6.60;3.70;;;;;;;19.94;26.31;99483.37;4090149;85;21062;-86
2022/04/13 13:36:30;;;;;;;7.10;3.50;;;;;;;19.52;26.12;99475.81;4096825;87;21042;-86
2022/04/13 13:42:44;;;;;;;5.78;3.27;;;;;;;19.34;26.17;99469.17;4092576;86;20991;-85
2022/04/13 13:48:46;;;;;;;8.10;4.40;;;;;;;19.27;26.35;99460.94;4093578;87;21079;-86
2022/04/13 13:54:47;;;;;;;8.08;3.67;;;;;;;19.35;26.04;99472.14;4084249;87;21018;-86
2022/04/13 14:00:55;;;;;;;6.37;3.10;;;;;;;19.33;26.16;99468.20;4123482;86;21499;-86
2022/04/13 14:06:57;;;;;;;8.03;3.25;;;;;;;19.22;26.15;99465.58;4030056;87;21949;-86
2022/04/13 14:13:00;;;;;;;7.45;3.02;;;;;;;19.08;26.27;99471.35;4082085;85;21066;-86
2022/04/13 14:19:02;;;;;;;6.78;3.00;;;;;;;19.02;26.29;99470.27;4089727;85;21018;-86
2022/04/13 14:25:06;;;;;;;5.42;3.40;;;;;;;19.03;25.77;99464.89;4085985;85;21007;-86
2022/04/13 14:31:07;;;;;;;11.38;3.95;;;;;;;18.67;26.40;99459.67;4083398;85;20983;-85
2022/04/13 14:37:08;;;;;;;6.58;3.70;;;;;;;18.48;26.28;99460.33;4077199;85;21134;-85
2022/04/13 14:43:10;;;;;;;4.37;2.85;;;;;;;18.28;26.43;99446.91;4079548;85;21014;-86
2022/04/13 14:49:11;;;;;;;5.87;3.33;;;;;;;18.17;26.56;99450.41;4082551;85;21109;-86
2022/04/13 14:55:13;;;;;;;8.10;3.40;;;;;;;18.02;26.86;99451.79;4073602;85;21148;-86
2022/04/13 15:01:15;;;;;;;8.05;3.22;;;;;;;17.83;26.98;99461.50;4079417;85;21078;-85
2022/04/13 15:07:18;;;;;;;5.90;3.12;;;;;;;17.70;27.17;99456.88;4078183;85;21568;-86
2022/04/13 15:14:04;;;;;;;12.18;3.65;;;;;;;17.55;27.25;99460.40;4080231;86;21039;-84
2022/04/13 15:20:07;;;;;;;12.53;8.38;;;;;;;17.42;27.43;99448.22;4081987;85;21081;-86
2022/04/13 15:26:08;;;;;;;12.05;5.12;;;;;;;17.21;27.64;99455.34;4080989;87;21030;-86
2022/04/13 15:32:09;;;;;;;9.65;4.50;;;;;;;17.04;28.01;99462.57;4074122;85;21141;-84
2022/04/13 15:38:11;;;;;;;9.75;5.83;;;;;;;16.78;28.30;99457.63;4082964;86;21593;-85
2022/04/13 15:44:12;;;;;;;13.68;6.42;;;;;;;16.58;28.54;99458.54;4080922;85;21066;-85
2022/04/13 15:50:14;;;;;;;12.25;5.33;;;;;;;16.40;29.07;99457.22;4080668;85;21677;-87
2022/04/13 15:56:16;;;;;;;9.18;5.50;;;;;;;16.12;29.54;99467.01;4079723;85;21129;-86
2022/04/13 16:02:17;;;;;;;8.08;4.97;;;;;;;15.93;29.59;99472.22;4080788;86;21086;-86
2022/04/13 16:08:19;;;;;;;14.43;6.70;;;;;;;15.76;29.85;99464.73;4074955;85;21182;-86
2022/04/13 16:14:20;;;;;;;13.38;6.55;;;;;;;15.54;30.14;99464.80;4083937;85;21094;-86
2022/04/13 16:20:23;;;;;;;11.63;5.65;;;;;;;15.37;30.30;99466.16;3970395;84;10000446;-86
2022/04/13 16:26:24;;;;;;;10.38;5.95;;;;;;;15.15;30.48;99470.89;4081300;85;21100;-85
2022/04/13 16:32:26;;;;;;;13.70;5.37;;;;;;;14.94;30.57;99481.89;4082486;85;21083;-87
2022/04/13 16:38:30;;;;;;;8.83;5.53;;;;;;;14.73;30.80;99481.88;4079839;86;21075;-86
2022/04/13 16:44:31;;;;;;;8.70;5.62;;;;;;;14.49;30.96;99484.54;4074900;86;21036;-85
2022/04/13 16:50:32;;;;;;;13.35;5.33;;;;;;;14.30;31.03;99493.16;4082230;85;22132;-86
2022/04/13 16:56:34;;;;;;;12.43;4.62;;;;;;;14.11;31.18;99500.50;4079591;85;21074;-86
2022/04/13 17:02:36;;;;;;;6.78;4.12;;;;;;;13.90;31.33;99495.47;4083182;85;21163;-86
2022/04/13 17:08:37;;;;;;;9.98;4.33;;;;;;;13.70;31.46;99493.57;4155509;85;21000;-86
2022/04/13 17:14:44;;;;;;;9.95;4.53;;;;;;;13.48;31.62;99492.45;4077179;86;22015;-85
2022/04/13 17:20:47;;;;;;;7.83;5.22;;;;;;;13.28;31.66;99488.38;3981857;88;21031;-86
2022/04/13 17:26:49;;;;;;;21.23;10.72;;;;;;;13.06;31.72;99488.75;3965343;88;21555;-85
2022/04/13 17:32:52;;;;;;;16.32;6.65;;;;;;;12.86;31.84;99492.09;3998531;88;21907;-85
2022/04/13 17:38:55;;;;;;;12.45;5.17;;;;;;;12.67;31.97;99490.91;4084714;85;21956;-86
2022/04/13 17:44:56;;;;;;;20.37;8.70;;;;;;;12.48;32.12;99496.77;4084498;85;21617;-86
2022/04/13 17:51:11;;;;;;;15.20;6.08;;;;;;;12.28;32.24;99498.68;3969130;85;9999621;-85
2022/04/13 17:57:12;;;;;;;11.35;4.45;;;;;;;12.07;32.51;99497.86;4088459;86;21015;-86
2022/04/13 18:03:14;;;;;;;17.85;8.45;;;;;;;11.88;32.71;99495.81;4088554;85;21571;-86
2022/04/13 18:09:16;;;;;;;21.52;9.50;;;;;;;11.72;32.83;99492.45;4076727;85;21094;-86
2022/04/13 18:15:17;;;;;;;13.88;8.20;;;;;;;11.57;33.08;99498.30;4072436;85;21074;-86
2022/04/13 18:21:19;;;;;;;13.20;8.20;;;;;;;11.38;33.38;99498.38;4075622;85;21042;-86
2022/04/13 18:27:21;;;;;;;16.35;6.92;;;;;;;11.20;33.70;99513.73;4079787;85;21034;-86
2022/04/13 18:33:22;;;;;;;16.80;7.50;;;;;;;10.99;34.41;99521.61;4076928;86;21636;-85
2022/04/13 18:39:27;;;;;;;22.65;10.32;;;;;;;10.71;34.59;99539.66;4084389;85;21993;-86
2022/04/13 18:45:29;;;;;;;26.65;13.18;;;;;;;10.42;35.11;99539.47;4088220;85;20980;-86
2022/04/13 18:51:30;;;;;;;28.73;12.15;;;;;;;10.16;35.67;99543.43;3958999;85;10000115;-86
2022/04/13 18:57:32;;;;;;;31.60;14.90;;;;;;;9.94;36.16;99541.34;4084912;85;21064;-85
2022/04/13 19:03:35;;;;;;;34.03;16.15;;;;;;;9.78;36.48;99544.69;4085267;85;21023;-86
2022/04/13 19:09:38;;;;;;;34.00;15.25;;;;;;;9.63;37.00;99540.05;4082624;85;21026;-86
2022/04/13 19:15:40;;;;;;;43.05;21.30;;;;;;;9.52;37.36;99546.64;4085006;85;21044;-85
2022/04/13 19:21:42;;;;;;;36.93;19.55;;;;;;;9.50;37.62;99539.36;4079970;86;21019;-85
2022/04/13 19:27:43;;;;;;;47.75;25.95;;;;;;;9.39;38.11;99539.13;4079014;85;21583;-86
2022/04/13 19:33:44;;;;;;;38.98;19.85;;;;;;;9.36;38.32;99539.80;4082793;87;21058;-86
2022/04/13 19:39:45;;;;;;;53.80;26.07;;;;;;;9.27;38.58;99542.52;4082903;86;21392;-86
2022/04/13 19:45:47;;;;;;;34.35;19.70;;;;;;;9.23;38.78;99536.95;4031610;85;20999;-87
2022/04/13 19:51:49;;;;;;;34.50;19.17;;;;;;;9.19;38.81;99537.42;3969300;85;10000369;-85
2022/04/13 19:57:52;;;;;;;74.45;37.90;;;;;;;9.02;38.91;99536.41;4083329;85;21493;-85
2022/04/13 20:03:53;;;;;;;79.80;47.30;;;;;;;8.87;39.17;99535.83;4091111;86;21043;-85
2022/04/13 20:09:55;;;;;;;64.87;30.08;;;;;;;8.80;39.42;99535.63;4085974;86;21001;-85
2022/04/13 20:15:58;;;;;;;48.13;22.30;;;;;;;8.72;39.78;99535.22;4088953;85;21090;-86
2022/04/13 20:22:01;;;;;;;36.28;20.35;;;;;;;8.64;40.14;99548.48;4084379;86;20988;-86
2022/04/13 20:28:08;;;;;;;44.83;20.70;;;;;;;8.52;40.33;99543.05;4082326;85;21741;-86
2022/04/13 20:34:07;;;;;;;47.73;21.68;;;;;;;8.46;40.77;99542.28;4079104;85;21086;-86
2022/04/13 20:40:10;;;;;;;38.75;21.02;;;;;;;8.39;40.78;99546.19;4083238;86;20985;-85
2022/04/13 20:46:12;;;;;;;46.05;24.02;;;;;;;8.25;40.87;99539.77;4088973;86;21603;-85
2022/04/13 20:52:13;;;;;;;48.30;23.35;;;;;;;8.24;41.12;99531.94;4086827;86;21052;-86
2022/04/13 20:58:14;;;;;;;43.08;24.15;;;;;;;8.16;41.25;99532.25;4075723;86;21085;-85
2022/04/13 21:04:16;;;;;;;44.70;22.55;;;;;;;8.06;41.72;99541.48;4070371;86;21612;-85
2022/04/13 21:10:17;;;;;;;44.75;22.35;;;;;;;8.03;41.98;99542.18;4084241;85;21062;-85
2022/04/13 21:16:20;;;;;;;45.45;23.75;;;;;;;8.02;42.13;99540.02;4070390;85;21122;-86
2022/04/13 21:22:22;;;;;;;55.05;26.52;;;;;;;7.99;42.45;99531.16;4083272;85;21055;-85
2022/04/13 21:28:23;;;;;;;46.88;24.37;;;;;;;7.95;42.61;99530.27;4083036;85;21070;-85
2022/04/13 21:34:24;;;;;;;55.50;28.85;;;;;;;7.85;43.05;99539.72;4085812;86;21066;-85
2022/04/13 21:40:26;;;;;;;66.55;32.15;;;;;;;7.73;43.23;99532.13;4076310;86;21691;-86
2022/04/13 21:46:38;;;;;;;91.80;41.63;;;;;;;7.62;43.88;99528.28;4079181;85;21036;-86
2022/04/13 21:52:45;;;;;;;67.12;33.33;;;;;;;7.48;44.06;99525.92;4078410;86;21102;-86
2022/04/13 21:58:49;;;;;;;57.62;29.55;;;;;;;7.26;44.65;99524.20;4042314;86;21086;-85
2022/04/13 22:04:51;;;;;;;52.95;27.87;;;;;;;7.05;44.96;99518.05;4069392;86;21039;-86
2022/04/13 22:10:56;;;;;;;58.17;30.20;;;;;;;6.95;45.33;99517.16;4067123;86;21084;-86
2022/04/13 22:17:08;;;;;;;59.67;29.42;;;;;;;6.90;46.01;99513.28;4069798;86;21031;-86
2022/04/13 22:23:11;;;;;;;53.42;26.37;;;;;;;6.83;46.33;99517.91;4065062;86;21048;-85
2022/04/13 22:29:18;;;;;;;36.10;19.30;;;;;;;6.80;47.64;99515.88;4068951;86;21133;-85
2022/04/13 22:35:20;;;;;;;56.75;28.75;;;;;;;6.75;48.01;99512.58;4071144;86;21056;-85
2022/04/13 22:41:27;;;;;;;59.13;30.20;;;;;;;6.72;49.15;99511.91;4073102;86;21169;-85
2022/04/13 22:47:32;;;;;;;64.27;29.05;;;;;;;6.64;48.59;99513.56;4066716;86;21075;-85
2022/04/13 22:53:37;;;;;;;54.75;28.73;;;;;;;6.51;48.61;99505.71;4072122;86;21063;-86
2022/04/13 22:59:41;;;;;;;52.88;26.37;;;;;;;6.48;48.19;99492.23;4067490;85;21044;-85
2022/04/13 23:05:45;;;;;;;43.15;23.98;;;;;;;6.42;48.75;99514.53;4092537;85;21044;-85
2022/04/13 23:11:48;;;;;;;43.25;22.90;;;;;;;6.34;49.92;99502.02;4064859;85;21399;-85
2022/04/13 23:17:51;;;;;;;53.28;26.70;;;;;;;6.43;50.94;99492.44;4091111;85;21592;-85
2022/04/13 23:24:00;;;;;;;57.85;26.60;;;;;;;6.36;50.68;99503.05;4069790;85;21189;-85
2022/04/13 23:30:11;;;;;;;52.90;27.62;;;;;;;6.15;50.47;99496.86;3928659;89;21474;-86
2022/04/13 23:36:17;;;;;;;55.33;28.60;;;;;;;5.99;50.59;99495.88;3922428;89;21070;-85
2022/04/13 23:42:20;;;;;;;;;;;;;;;5.76;50.84;99494.02;3933617;89;21116;-85
2022/04/13 23:48:22;;;;;;;47.83;23.92;;;;;;;5.66;52.22;99486.83;4000227;87;20178;-85
2022/04/13 23:54:23;;;;;;;54.93;25.68;;;;;;;5.60;52.19;99480.00;4004052;87;21041;-86
